地図

経路データ

SID SEASON NUMBER BASIN SUBBASIN NAME ISO_TIME NATURE LAT LON WMO_WIND WMO_PRES WMO_AGENCY TRACK_TYPE DIST2LAND LANDFALL IFLAG USA_AGENCY USA_ATCF_ID USA_LAT USA_LON USA_RECORD USA_STATUS USA_WIND USA_PRES USA_SSHS USA_R34_NE USA_R34_SE USA_R34_SW USA_R34_NW USA_R50_NE USA_R50_SE USA_R50_SW USA_R50_NW USA_R64_NE USA_R64_SE USA_R64_SW USA_R64_NW USA_POCI USA_ROCI USA_RMW USA_EYE TOKYO_LAT TOKYO_LON TOKYO_GRADE TOKYO_WIND TOKYO_PRES TOKYO_R50_DIR TOKYO_R50_LONG TOKYO_R50_SHORT TOKYO_R30_DIR TOKYO_R30_LONG TOKYO_R30_SHORT TOKYO_LAND CMA_LAT CMA_LON CMA_CAT CMA_WIND CMA_PRES HKO_LAT HKO_LON HKO_CAT HKO_WIND HKO_PRES NEWDELHI_LAT NEWDELHI_LON NEWDELHI_GRADE NEWDELHI_WIND NEWDELHI_PRES NEWDELHI_CI NEWDELHI_DP NEWDELHI_POCI REUNION_LAT REUNION_LON REUNION_TYPE REUNION_WIND REUNION_PRES REUNION_TNUM REUNION_CI REUNION_RMW REUNION_R34_NE REUNION_R34_SE REUNION_R34_SW REUNION_R34_NW REUNION_R50_NE REUNION_R50_SE REUNION_R50_SW REUNION_R50_NW REUNION_R64_NE REUNION_R64_SE REUNION_R64_SW REUNION_R64_NW BOM_LAT BOM_LON BOM_TYPE BOM_WIND BOM_PRES BOM_TNUM BOM_CI BOM_RMW BOM_R34_NE BOM_R34_SE BOM_R34_SW BOM_R34_NW BOM_R50_NE BOM_R50_SE BOM_R50_SW BOM_R50_NW BOM_R64_NE BOM_R64_SE BOM_R64_SW BOM_R64_NW BOM_ROCI BOM_POCI BOM_EYE BOM_POS_METHOD BOM_PRES_METHOD NADI_LAT NADI_LON NADI_CAT NADI_WIND NADI_PRES WELLINGTON_LAT WELLINGTON_LON WELLINGTON_WIND WELLINGTON_PRES DS824_LAT DS824_LON DS824_STAGE DS824_WIND DS824_PRES TD9636_LAT TD9636_LON TD9636_STAGE TD9636_WIND TD9636_PRES TD9635_LAT TD9635_LON TD9635_WIND TD9635_PRES TD9635_ROCI NEUMANN_LAT NEUMANN_LON NEUMANN_CLASS NEUMANN_WIND NEUMANN_PRES MLC_LAT MLC_LON MLC_CLASS MLC_WIND MLC_PRES USA_GUST BOM_GUST BOM_GUST_PER REUNION_GUST REUNION_GUST_PER USA_SEAHGT USA_SEARAD_NE USA_SEARAD_SE USA_SEARAD_SW USA_SEARAD_NW STORM_SPEED STORM_DIR
1945036S19051 1945 11 SI MM NOT_NAMED 1945-02-04 18:00:00 TS -19.4000 50.7000 main 173 157 O________OO___ jtwc_sh SH061945 -19.4000 50.7000 -1 -19.4000 50.7000 TC -19.4000 50.7000 1 5 247
1945036S19051 1945 11 SI MM NOT_NAMED 1945-02-04 21:00:00 TS -19.5003 50.4501 main 157 133 P________PP___ SH061945 -19.4901 50.4500 -1 -19.4901 50.4500 TC -19.5206 50.4503 1 5 246
1945036S19051 1945 11 SI MM NOT_NAMED 1945-02-05 00:00:00 TS -19.6143 50.2001 main 133 118 O________OP___ jtwc_sh SH061945 -19.6000 50.2000 -1 -19.6000 50.2000 TC -19.6429 50.2004 1 5 242
1945036S19051 1945 11 SI MM NOT_NAMED 1945-02-05 03:00:00 TS -19.7512 49.9501 main 123 94 P________PP___ SH061945 -19.7425 49.9500 -1 -19.7425 49.9500 TC -19.7687 49.9502 1 6 239
1945036S19051 1945 11 SI MM NOT_NAMED 1945-02-05 06:00:00 TS -19.9000 49.7000 main 94 73 O________OO___ jtwc_sh SH061945 -19.9000 49.7000 -1 -19.9000 49.7000 TC -19.9000 49.7000 1 6 238
1945036S19051 1945 11 SI MM NOT_NAMED 1945-02-05 09:00:00 TS -20.0461 49.4543 main 73 47 P________PP___ SH061945 -20.0499 49.4574 -1 -20.0499 49.4574 TC -20.0385 49.4482 1 6 238
1945036S19051 1945 11 SI MM NOT_NAMED 1945-02-05 12:00:00 TS -20.1949 49.1957 main 47 23 O________OP___ jtwc_sh SH061945 -20.2000 49.2000 -1 -20.2000 49.2000 TC -20.1846 49.1871 1 6 240
1945036S19051 1945 11 SI MM NOT_NAMED 1945-02-05 15:00:00 TS -20.3461 48.9075 main 23 10 P________PP___ SH061945 -20.3500 48.9075 -1 -20.3500 48.9075 TC -20.3384 48.9075 1 6 241
1945036S19051 1945 11 SI MM NOT_NAMED 1945-02-05 18:00:00 TS -20.5000 48.6000 main 10 0 O________OO___ jtwc_sh SH061945 -20.5000 48.6000 -1 -20.5000 48.6000 TC -20.5000 48.6000 1 6 242
1945036S19051 1945 11 SI MM NOT_NAMED 1945-02-05 21:00:00 TS -20.6425 48.3113 main 0 0 P________PP___ SH061945 -20.6423 48.3223 -1 -20.6423 48.3223 TC -20.6428 48.2893 1 7 243
1945036S19051 1945 11 SI MM NOT_NAMED 1945-02-06 00:00:00 TS -20.7988 47.9819 main 0 0 O________OP___ jtwc_sh SH061945 -20.8000 48.0000 -1 -20.8000 48.0000 TC -20.7965 47.9458 1 8 244
1945036S19051 1945 11 SI MM NOT_NAMED 1945-02-06 03:00:00 TS -20.9772 47.5764 main 0 0 P________PP___ SH061945 -20.9774 47.5873 -1 -20.9774 47.5873 TC -20.9769 47.5545 1 9 244
1945036S19051 1945 11 SI MM NOT_NAMED 1945-02-06 06:00:00 TS -21.2000 47.1000 main 0 0 O________OO___ jtwc_sh SH061945 -21.2000 47.1000 -1 -21.2000 47.1000 TC -21.2000 47.1000 1 11 242
1945036S19051 1945 11 SI MM NOT_NAMED 1945-02-06 09:00:00 TS -21.4775 46.5775 main 0 0 P________PP___ SH061945 -21.4773 46.5798 -1 -21.4773 46.5798 TC -21.4780 46.5729 1 12 240
1945036S19051 1945 11 SI MM NOT_NAMED 1945-02-06 12:00:00 TS -21.7992 45.9942 main 0 0 O________OP___ jtwc_sh SH061945 -21.8000 46.0000 -1 -21.8000 46.0000 TC -21.7976 45.9825 1 13 240
1945036S19051 1945 11 SI MM NOT_NAMED 1945-02-06 15:00:00 TS -22.1427 45.3602 main 0 0 P________PP___ SH061945 -22.1424 45.3649 -1 -22.1424 45.3649 TC -22.1434 45.3507 1 14 240
1945036S19051 1945 11 SI MM NOT_NAMED 1945-02-06 18:00:00 TS -22.5000 44.7000 main 0 0 O________OO___ jtwc_sh SH061945 -22.5000 44.7000 -1 -22.5000 44.7000 TC -22.5000 44.7000 1 14 240
1945036S19051 1945 11 SI MM NOT_NAMED 1945-02-06 21:00:00 TS -22.8515 44.0494 main 0 0 P________PP___ SH061945 -22.8497 44.0497 -1 -22.8497 44.0497 TC -22.8551 44.0490 1 14 240
1945036S19051 1945 11 SI MM NOT_NAMED 1945-02-07 00:00:00 TS -23.2022 43.3999 main 20 20 O________OP___ jtwc_sh SH061945 -23.2000 43.4000 -1 -23.2000 43.4000 TC -23.2066 43.3998 1 14 240
1945036S19051 1945 11 SI MM NOT_NAMED 1945-02-07 03:00:00 TS -23.5520 42.7507 main 82 82 P________PP___ SH061945 -23.5505 42.7507 -1 -23.5505 42.7507 TC -23.5548 42.7507 1 14 240
1945036S19051 1945 11 SI MM NOT_NAMED 1945-02-07 06:00:00 TS -23.9000 42.1000 main 154 O________OO___ jtwc_sh SH061945 -23.9000 42.1000 -1 -23.9000 42.1000 TC -23.9000 42.1000 1 14 240

IBTrACS Databaseについて

本データベースは、米国NOAAが公開する1842年以降の世界の熱帯低気圧のベストトラックデータアーカイブInternational Best Track Archive for Climate Stewardship (IBTrACS)を、ウェブで閲覧しやすい形式に変換したものです。

最終更新日:2021-11-26